Time;durP1;ratioP1;P1;durP2;ratioP2;P2;SDS_P1;SDS_P2;PMS_P1;PMS_P2;Temp;Humidity;BMP_temperature;BMP_pressure;BME280_temperature;BME280_humidity;BME280_pressure;Samples;Min_cycle;Max_cycle;Signal;HPM_P1;HPM_P2
2024/03/06 00:00:46;;;;;;;24.33;10.68;;;5.90;99.90;;;;;;5017148;28;20368;-68
2024/03/06 00:03:12;;;;;;;20.90;9.70;;;5.90;99.90;;;;;;5022580;28;20494;-68
2024/03/06 00:05:37;;;;;;;21.80;11.25;;;5.90;99.90;;;;;;5019176;28;20041;-68
2024/03/06 00:08:03;;;;;;;24.45;11.00;;;5.90;99.90;;;;;;5014749;28;20103;-67
2024/03/06 00:10:29;;;;;;;21.92;10.68;;;5.90;99.90;;;;;;5025803;28;20522;-68
2024/03/06 00:12:55;;;;;;;18.15;9.77;;;5.90;99.90;;;;;;5019711;28;20321;-68
2024/03/06 00:15:21;;;;;;;21.45;10.75;;;5.90;99.90;;;;;;5019238;28;20029;-68
2024/03/06 00:17:46;;;;;;;27.15;10.75;;;5.90;99.90;;;;;;5021031;28;20034;-68
2024/03/06 00:20:13;;;;;;;26.65;11.52;;;5.90;99.90;;;;;;5019771;28;20552;-68
2024/03/06 00:22:38;;;;;;;21.02;11.40;;;5.90;99.90;;;;;;5024358;28;20678;-68
2024/03/06 00:25:04;;;;;;;19.13;10.45;;;5.90;99.90;;;;;;5012498;28;20031;-68
2024/03/06 00:27:30;;;;;;;25.45;11.20;;;5.90;99.90;;;;;;5000488;28;20025;-68
2024/03/06 00:29:56;;;;;;;20.30;9.65;;;5.80;99.90;;;;;;5014988;28;20061;-68
2024/03/06 00:32:23;;;;;;;19.73;10.48;;;5.80;99.90;;;;;;5015286;28;20092;-68
2024/03/06 00:34:49;;;;;;;25.73;11.32;;;5.80;99.90;;;;;;5013867;28;20033;-69
2024/03/06 00:37:14;;;;;;;29.35;11.07;;;5.90;99.90;;;;;;5019508;28;20501;-69
2024/03/06 00:39:40;;;;;;;26.33;11.50;;;5.90;99.90;;;;;;5021348;28;20061;-68
2024/03/06 00:42:05;;;;;;;25.33;10.95;;;5.90;99.90;;;;;;5016255;28;20026;-68
2024/03/06 00:44:31;;;;;;;19.42;11.32;;;5.90;99.90;;;;;;5011521;28;20025;-68
2024/03/06 00:46:57;;;;;;;26.10;10.93;;;5.90;99.90;;;;;;5017165;28;20514;-68
2024/03/06 00:49:22;;;;;;;25.10;11.43;;;5.90;99.90;;;;;;5016684;28;20536;-68
2024/03/06 00:51:48;;;;;;;23.60;11.60;;;5.90;99.90;;;;;;5020795;28;20076;-67
2024/03/06 00:54:13;;;;;;;23.33;11.50;;;5.90;99.90;;;;;;5018686;28;20052;-68
2024/03/06 00:56:39;;;;;;;23.98;10.48;;;5.90;99.90;;;;;;5023776;28;20534;-68
2024/03/06 00:59:05;;;;;;;23.30;11.77;;;5.90;99.90;;;;;;5012331;28;20033;-69
2024/03/06 01:01:30;;;;;;;21.13;11.43;;;5.90;99.90;;;;;;5016651;28;20029;-68
2024/03/06 01:03:56;;;;;;;22.23;11.50;;;5.90;99.90;;;;;;5020178;28;20033;-69
2024/03/06 01:06:22;;;;;;;20.98;11.32;;;5.90;99.90;;;;;;5018875;28;20409;-68
2024/03/06 01:08:47;;;;;;;26.65;12.38;;;5.90;99.90;;;;;;5016550;28;20041;-69
2024/03/06 01:11:16;;;;;;;25.90;11.30;;;5.90;99.90;;;;;;5013652;28;20033;-69
2024/03/06 01:13:42;;;;;;;23.90;11.35;;;5.90;99.90;;;;;;5015191;28;20069;-69
2024/03/06 01:16:07;;;;;;;22.65;11.60;;;5.90;99.90;;;;;;5020048;28;20471;-69
2024/03/06 01:18:33;;;;;;;24.48;11.20;;;5.90;99.90;;;;;;5019627;28;20045;-69
2024/03/06 01:20:59;;;;;;;22.05;10.32;;;5.90;99.90;;;;;;5020058;28;22777;-68
2024/03/06 01:23:24;;;;;;;27.95;11.75;;;5.90;99.90;;;;;;5018695;28;20144;-69
2024/03/06 01:25:50;;;;;;;24.50;11.68;;;5.90;99.90;;;;;;5018636;28;20056;-68
2024/03/06 01:28:16;;;;;;;24.23;12.02;;;5.90;99.90;;;;;;5020533;28;20087;-68
2024/03/06 01:30:41;;;;;;;19.42;10.80;;;5.90;99.90;;;;;;5015945;28;20026;-69
2024/03/06 01:33:07;;;;;;;19.52;11.00;;;5.90;99.90;;;;;;5014255;28;20014;-68
2024/03/06 01:35:32;;;;;;;28.52;12.48;;;5.90;99.90;;;;;;5012617;28;20148;-68
2024/03/06 01:37:58;;;;;;;25.85;11.48;;;5.90;99.90;;;;;;5018669;28;20129;-68
2024/03/06 01:40:23;;;;;;;26.52;11.05;;;5.90;99.90;;;;;;5022150;28;20036;-69
2024/03/06 01:42:49;;;;;;;22.50;11.05;;;6.00;99.90;;;;;;5017409;28;20033;-68
2024/03/06 01:45:15;;;;;;;24.95;11.80;;;6.00;99.90;;;;;;5023055;28;20037;-68
2024/03/06 01:47:40;;;;;;;27.45;12.80;;;5.90;99.90;;;;;;5016699;28;20117;-67
2024/03/06 01:50:10;;;;;;;22.45;12.05;;;5.90;99.90;;;;;;5019195;28;20037;-68
2024/03/06 01:52:37;;;;;;;26.38;11.85;;;5.90;99.90;;;;;;5019573;28;20042;-67
2024/03/06 01:55:05;;;;;;;22.88;10.73;;;5.90;99.90;;;;;;5008365;28;20609;-68
2024/03/06 01:57:31;;;;;;;27.88;12.20;;;5.90;99.90;;;;;;5020255;28;20701;-68
2024/03/06 01:59:57;;;;;;;24.52;12.15;;;5.90;99.90;;;;;;5016513;28;20022;-69
2024/03/06 02:02:23;;;;;;;23.92;11.88;;;5.90;99.90;;;;;;5014551;28;21996;-68
2024/03/06 02:04:48;;;;;;;28.80;13.75;;;5.90;99.90;;;;;;5012598;28;20037;-69
2024/03/06 02:07:15;;;;;;;25.75;12.00;;;5.90;99.90;;;;;;5010857;28;20052;-68
2024/03/06 02:09:42;;;;;;;29.42;12.75;;;5.90;99.90;;;;;;5012156;28;20030;-69
2024/03/06 02:12:08;;;;;;;23.77;11.57;;;5.90;99.90;;;;;;5010683;28;20277;-69
2024/03/06 02:14:35;;;;;;;27.98;12.68;;;5.90;99.90;;;;;;5012804;28;20033;-69
2024/03/06 02:17:00;;;;;;;25.88;12.93;;;5.90;99.90;;;;;;5012902;28;20107;-69
2024/03/06 02:19:41;;;;;;;22.48;12.27;;;5.90;99.90;;;;;;5012364;28;20038;-69
2024/03/06 02:22:07;;;;;;;31.45;13.73;;;5.90;99.90;;;;;;5012060;28;20046;-68
2024/03/06 02:24:34;;;;;;;22.30;11.60;;;5.90;99.90;;;;;;5014021;28;20114;-69
2024/03/06 02:26:59;;;;;;;31.13;12.30;;;5.90;99.90;;;;;;5013672;28;20025;-68
2024/03/06 02:29:25;;;;;;;22.30;12.25;;;5.80;99.90;;;;;;5012016;28;20040;-69
2024/03/06 02:31:51;;;;;;;27.20;12.38;;;5.90;99.90;;;;;;5015771;28;20034;-69
2024/03/06 02:34:16;;;;;;;21.45;11.90;;;5.80;99.90;;;;;;5011276;28;20125;-69
2024/03/06 02:36:42;;;;;;;27.83;12.20;;;5.80;99.90;;;;;;5016369;28;20436;-69
2024/03/06 02:39:08;;;;;;;27.90;12.20;;;5.90;99.90;;;;;;5010791;28;20060;-69
2024/03/06 02:41:38;;;;;;;28.15;12.35;;;5.80;99.90;;;;;;5011721;28;20038;-68
2024/03/06 02:44:03;;;;;;;24.63;11.57;;;5.80;99.90;;;;;;5015963;28;20135;-68
2024/03/06 02:46:29;;;;;;;34.53;13.30;;;5.80;99.90;;;;;;5013945;28;20057;-69
2024/03/06 02:48:55;;;;;;;28.60;13.27;;;5.80;99.90;;;;;;5013399;28;20041;-69
2024/03/06 02:51:21;;;;;;;28.95;13.30;;;5.80;99.90;;;;;;5011652;28;20384;-68
2024/03/06 02:53:49;;;;;;;32.63;12.35;;;5.80;99.90;;;;;;5006035;28;20049;-69
2024/03/06 02:56:18;;;;;;;31.80;11.70;;;5.80;99.90;;;;;;4998872;28;20506;-69
2024/03/06 02:58:44;;;;;;;26.50;11.60;;;5.80;99.90;;;;;;4999870;28;20402;-68
2024/03/06 03:01:10;;;;;;;35.50;13.18;;;5.80;99.90;;;;;;5003485;28;20038;-69
2024/03/06 03:03:36;;;;;;;20.30;11.77;;;5.80;99.90;;;;;;5015356;28;20032;-68
2024/03/06 03:06:01;;;;;;;25.48;12.02;;;5.80;99.90;;;;;;5016431;28;20030;-68
2024/03/06 03:08:27;;;;;;;22.40;11.88;;;5.80;99.90;;;;;;5012861;28;20064;-69
2024/03/06 03:10:52;;;;;;;26.35;12.30;;;5.80;99.90;;;;;;5019107;28;20037;-68
2024/03/06 03:13:18;;;;;;;23.88;12.07;;;5.80;99.90;;;;;;5017246;28;20117;-69
2024/03/06 03:15:44;;;;;;;24.08;12.25;;;5.80;99.90;;;;;;5020239;28;20684;-69
2024/03/06 03:18:09;;;;;;;28.70;11.95;;;5.80;99.90;;;;;;5018449;28;20028;-69
2024/03/06 03:20:36;;;;;;;25.00;12.35;;;5.80;99.90;;;;;;5016333;28;20121;-68
2024/03/06 03:23:02;;;;;;;21.88;12.02;;;5.80;99.90;;;;;;5013696;28;20034;-69
2024/03/06 03:25:27;;;;;;;26.45;12.23;;;5.80;99.90;;;;;;5016899;28;20490;-68
2024/03/06 03:27:53;;;;;;;28.70;13.05;;;5.80;99.90;;;;;;5017204;28;20052;-69
2024/03/06 03:30:21;;;;;;;27.75;12.35;;;5.80;99.90;;;;;;5016723;28;20438;-68
2024/03/06 03:32:50;;;;;;;28.23;12.48;;;5.70;99.90;;;;;;5018843;28;20056;-68
2024/03/06 03:35:16;;;;;;;24.98;12.02;;;5.70;99.90;;;;;;5021123;28;20084;-68
2024/03/06 03:37:43;;;;;;;27.50;13.02;;;5.70;99.90;;;;;;5020086;28;20030;-68
2024/03/06 03:40:11;;;;;;;27.02;11.93;;;5.80;99.90;;;;;;5020842;28;20045;-68
2024/03/06 03:42:37;;;;;;;35.25;12.60;;;5.80;99.90;;;;;;5012971;28;20568;-67
2024/03/06 03:45:04;;;;;;;27.05;11.93;;;5.70;99.90;;;;;;5021977;28;20030;-68
2024/03/06 03:47:30;;;;;;;28.67;12.25;;;5.80;99.90;;;;;;5025226;28;20113;-69
2024/03/06 03:49:56;;;;;;;32.33;12.48;;;5.70;99.90;;;;;;5021988;28;20124;-68
2024/03/06 03:52:22;;;;;;;25.70;12.30;;;5.70;99.90;;;;;;5019205;28;20037;-68
2024/03/06 03:54:47;;;;;;;27.00;11.43;;;5.70;99.90;;;;;;5017620;28;20042;-68
2024/03/06 03:57:14;;;;;;;27.00;11.82;;;5.70;99.90;;;;;;5017214;28;20056;-68
2024/03/06 03:59:41;;;;;;;29.23;11.55;;;5.70;99.90;;;;;;5013567;28;20088;-68
2024/03/06 04:02:06;;;;;;;25.38;11.75;;;5.70;99.90;;;;;;5017375;28;20034;-68
2024/03/06 04:04:33;;;;;;;35.70;12.55;;;5.70;99.90;;;;;;5013325;28;20029;-68
2024/03/06 04:07:01;;;;;;;25.92;12.40;;;5.70;99.90;;;;;;5024486;28;20034;-68
2024/03/06 04:09:30;;;;;;;28.08;12.90;;;5.70;99.90;;;;;;5021028;28;20088;-69
2024/03/06 04:11:55;;;;;;;31.85;12.27;;;5.70;99.90;;;;;;5022118;28;20034;-69
2024/03/06 04:14:22;;;;;;;25.35;11.90;;;5.70;99.90;;;;;;5019414;28;20034;-68
2024/03/06 04:16:48;;;;;;;34.40;12.15;;;5.70;99.90;;;;;;5020598;28;20053;-69
2024/03/06 04:19:14;;;;;;;27.80;12.05;;;5.70;99.90;;;;;;5019838;28;20046;-68
2024/03/06 04:21:42;;;;;;;23.40;12.48;;;5.70;99.90;;;;;;5018711;28;20383;-68
2024/03/06 04:24:08;;;;;;;24.08;12.18;;;5.70;99.90;;;;;;5021443;28;20038;-68
2024/03/06 04:26:33;;;;;;;23.13;12.27;;;5.70;99.90;;;;;;5018334;28;20572;-67
2024/03/06 04:28:59;;;;;;;26.42;11.95;;;5.70;99.90;;;;;;5021112;28;20034;-68
2024/03/06 04:31:25;;;;;;;31.42;12.98;;;5.70;99.90;;;;;;5019631;28;20502;-68
2024/03/06 04:33:50;;;;;;;26.65;12.25;;;5.70;99.90;;;;;;5021498;28;20042;-68
2024/03/06 04:36:16;;;;;;;29.58;13.02;;;5.70;99.90;;;;;;5017548;28;20487;-69
2024/03/06 04:38:42;;;;;;;33.55;13.07;;;5.70;99.90;;;;;;5013489;28;20148;-68
2024/03/06 04:41:08;;;;;;;32.88;12.43;;;5.70;99.90;;;;;;5002455;28;20499;-68
2024/03/06 04:43:35;;;;;;;27.25;13.10;;;5.70;99.90;;;;;;5010518;28;20029;-65
2024/03/06 04:46:00;;;;;;;29.77;13.05;;;5.80;99.90;;;;;;5011289;28;20046;-68
2024/03/06 04:48:26;;;;;;;25.10;13.18;;;5.70;99.90;;;;;;4999316;28;20028;-69
2024/03/06 04:50:52;;;;;;;23.98;12.20;;;5.70;99.90;;;;;;4992479;28;20088;-68
2024/03/06 04:53:20;;;;;;;25.67;12.90;;;5.70;99.90;;;;;;4993649;28;20036;-68
2024/03/06 04:55:46;;;;;;;31.38;13.30;;;5.70;99.90;;;;;;5008673;28;20045;-68
2024/03/06 04:58:12;;;;;;;30.75;12.38;;;5.60;99.90;;;;;;5016234;28;20041;-68
2024/03/06 05:00:37;;;;;;;30.08;12.85;;;5.60;99.90;;;;;;5020760;28;20040;-68
2024/03/06 05:03:03;;;;;;;26.42;13.90;;;5.60;99.90;;;;;;5012176;28;20022;-68
2024/03/06 05:05:29;;;;;;;26.75;13.52;;;5.70;99.90;;;;;;5013732;28;20572;-68
2024/03/06 05:07:55;;;;;;;27.27;13.70;;;5.60;99.90;;;;;;5013645;28;20526;-68
2024/03/06 05:10:21;;;;;;;26.17;13.60;;;5.60;99.90;;;;;;5015582;28;20065;-68
2024/03/06 05:12:46;;;;;;;28.90;13.07;;;5.60;99.90;;;;;;5016082;28;20046;-69
2024/03/06 05:15:12;;;;;;;27.63;12.30;;;5.60;99.90;;;;;;5018035;28;20032;-69
2024/03/06 05:17:38;;;;;;;31.73;12.90;;;5.70;99.90;;;;;;5015921;28;20510;-68
2024/03/06 05:20:04;;;;;;;32.33;13.32;;;5.60;99.90;;;;;;5012343;28;20113;-68
2024/03/06 05:22:30;;;;;;;27.42;13.52;;;5.60;99.90;;;;;;5027041;28;20054;-68
2024/03/06 05:24:56;;;;;;;32.65;13.80;;;5.70;99.90;;;;;;5012678;28;20053;-68
2024/03/06 05:27:22;;;;;;;23.95;12.40;;;5.60;99.90;;;;;;5016981;28;20125;-69
2024/03/06 05:29:47;;;;;;;27.15;13.27;;;5.60;99.90;;;;;;5016561;28;20034;-68
2024/03/06 05:32:13;;;;;;;30.35;15.50;;;5.70;99.90;;;;;;5014107;28;20121;-69
2024/03/06 05:34:39;;;;;;;26.23;12.55;;;5.70;99.90;;;;;;5010457;28;20037;-68
2024/03/06 05:37:05;;;;;;;27.95;13.02;;;5.70;99.90;;;;;;5017260;28;20045;-68
2024/03/06 05:39:31;;;;;;;32.97;14.95;;;5.60;99.90;;;;;;5014632;28;20025;-68
2024/03/06 05:42:04;;;;;;;28.30;13.43;;;5.60;99.90;;;;;;5019856;28;20032;-68
2024/03/06 05:44:31;;;;;;;28.98;13.18;;;5.70;99.90;;;;;;5018866;28;20030;-68
2024/03/06 05:46:58;;;;;;;27.63;13.90;;;5.70;99.90;;;;;;5019446;28;20038;-68
2024/03/06 05:49:23;;;;;;;36.15;14.48;;;5.70;99.90;;;;;;5017070;28;20285;-68
2024/03/06 05:51:49;;;;;;;33.55;14.93;;;5.70;99.90;;;;;;5013751;28;20224;-67
2024/03/06 05:54:15;;;;;;;36.33;14.85;;;5.60;99.90;;;;;;5018094;28;20033;-68
2024/03/06 05:56:42;;;;;;;29.45;14.07;;;5.60;99.90;;;;;;5013542;28;20430;-68
2024/03/06 05:59:07;;;;;;;27.77;13.65;;;5.60;99.90;;;;;;5013167;28;20039;-67
2024/03/06 06:01:34;;;;;;;29.00;14.35;;;5.60;99.90;;;;;;5016708;28;20112;-68
2024/03/06 06:04:00;;;;;;;34.33;14.85;;;5.60;99.90;;;;;;5010765;28;20619;-68
2024/03/06 06:06:26;;;;;;;34.17;15.52;;;5.60;99.90;;;;;;5018174;28;20115;-69
2024/03/06 06:08:52;;;;;;;30.60;14.38;;;5.60;99.90;;;;;;5007904;28;20085;-68
2024/03/06 06:11:19;;;;;;;32.65;14.43;;;5.60;99.90;;;;;;5015798;28;20391;-67
2024/03/06 06:13:45;;;;;;;28.38;13.45;;;5.50;99.90;;;;;;5008328;28;20056;-69
2024/03/06 06:16:10;;;;;;;32.05;14.45;;;5.50;99.90;;;;;;5007196;28;20046;-69
2024/03/06 06:18:36;;;;;;;33.00;14.65;;;5.60;99.90;;;;;;5014817;28;20022;-69
2024/03/06 06:21:03;;;;;;;27.50;13.68;;;5.50;99.90;;;;;;5016283;28;20033;-68
2024/03/06 06:23:29;;;;;;;33.75;14.38;;;5.60;99.90;;;;;;5012169;28;20029;-69
2024/03/06 06:25:56;;;;;;;29.25;14.38;;;5.50;99.90;;;;;;5015834;28;20065;-68
2024/03/06 06:28:22;;;;;;;35.40;15.27;;;5.50;99.90;;;;;;5014643;28;20535;-68
2024/03/06 06:30:48;;;;;;;31.63;13.80;;;5.50;99.90;;;;;;5014715;28;20030;-68
2024/03/06 06:33:14;;;;;;;31.88;15.60;;;5.50;99.90;;;;;;5015719;28;20030;-67
2024/03/06 06:35:39;;;;;;;36.42;15.35;;;5.50;99.90;;;;;;5025455;28;20044;-68
2024/03/06 06:38:05;;;;;;;29.83;13.38;;;5.50;99.90;;;;;;5025292;28;20057;-70
2024/03/06 06:40:31;;;;;;;31.08;14.05;;;5.50;99.90;;;;;;5019571;28;20025;-69
2024/03/06 06:42:57;;;;;;;35.88;14.95;;;5.50;99.90;;;;;;5018374;28;20033;-68
2024/03/06 06:45:23;;;;;;;33.75;15.13;;;5.60;99.90;;;;;;5019186;28;20421;-68
2024/03/06 06:47:49;;;;;;;34.15;13.98;;;5.50;99.90;;;;;;5018754;28;20545;-68
2024/03/06 06:50:15;;;;;;;29.70;13.80;;;5.60;99.90;;;;;;5015621;28;20052;-69
2024/03/06 06:52:41;;;;;;;30.20;14.13;;;5.50;99.90;;;;;;5018066;28;20040;-69
2024/03/06 06:55:09;;;;;;;33.10;15.13;;;5.60;99.90;;;;;;5026886;28;20041;-66
2024/03/06 06:57:35;;;;;;;32.67;16.05;;;5.50;99.90;;;;;;5017380;28;20297;-69
2024/03/06 07:00:01;;;;;;;39.90;14.90;;;5.60;99.90;;;;;;5013769;28;20709;-69
2024/03/06 07:02:27;;;;;;;29.15;14.18;;;5.60;99.90;;;;;;5015479;28;20045;-68
2024/03/06 07:04:53;;;;;;;31.80;14.85;;;5.60;99.90;;;;;;5022651;28;20037;-66
2024/03/06 07:07:21;;;;;;;32.70;13.47;;;5.60;99.90;;;;;;5025555;28;20101;-69
2024/03/06 07:09:47;;;;;;;30.90;14.18;;;5.60;99.90;;;;;;5018635;28;20085;-66
2024/03/06 07:12:12;;;;;;;28.00;15.10;;;5.60;99.90;;;;;;5021778;28;20047;-66
2024/03/06 07:14:38;;;;;;;29.83;14.43;;;5.70;99.90;;;;;;5022581;28;20037;-66
2024/03/06 07:17:03;;;;;;;30.88;13.57;;;5.70;99.90;;;;;;5018543;28;20088;-67
2024/03/06 07:19:29;;;;;;;28.05;13.88;;;5.70;99.90;;;;;;5024986;28;20048;-66
2024/03/06 07:21:54;;;;;;;39.97;15.32;;;5.70;99.90;;;;;;5023900;28;20045;-67
2024/03/06 07:24:20;;;;;;;32.50;15.50;;;5.70;99.90;;;;;;5015809;28;20030;-67
2024/03/06 07:26:45;;;;;;;29.85;14.13;;;5.70;99.90;;;;;;5019675;28;20040;-65
2024/03/06 07:29:17;;;;;;;28.75;14.55;;;5.80;99.90;;;;;;5022508;28;20056;-67
2024/03/06 07:31:44;;;;;;;33.03;14.02;;;5.70;99.90;;;;;;5022482;28;20033;-66
2024/03/06 07:34:10;;;;;;;30.83;14.43;;;5.80;99.90;;;;;;5019583;28;20041;-66
2024/03/06 07:36:35;;;;;;;32.83;14.98;;;5.80;99.90;;;;;;5017548;28;20025;-67
2024/03/06 07:39:02;;;;;;;30.48;14.38;;;5.70;99.90;;;;;;5017065;28;20014;-68
2024/03/06 07:41:28;;;;;;;31.55;14.65;;;5.80;99.90;;;;;;5017891;28;20526;-66
2024/03/06 07:43:53;;;;;;;28.77;14.10;;;5.80;99.90;;;;;;5012167;28;20076;-67
2024/03/06 07:46:19;;;;;;;28.55;13.45;;;5.80;99.90;;;;;;5015147;28;20036;-66
2024/03/06 07:48:45;;;;;;;31.95;14.60;;;5.90;99.90;;;;;;5017961;28;20083;-66
2024/03/06 07:51:10;;;;;;;28.92;14.50;;;5.90;99.90;;;;;;5018960;28;20030;-67
2024/03/06 07:53:36;;;;;;;35.97;16.10;;;5.90;99.90;;;;;;5018689;28;20032;-67
2024/03/06 07:56:03;;;;;;;29.95;15.20;;;5.90;99.90;;;;;;5018754;28;20040;-69
2024/03/06 07:58:29;;;;;;;30.73;13.33;;;6.00;99.90;;;;;;5012477;28;20032;-69
2024/03/06 08:00:56;;;;;;;31.02;15.30;;;6.00;99.90;;;;;;5018126;28;20263;-69
2024/03/06 08:03:22;;;;;;;33.93;14.53;;;6.00;99.90;;;;;;5018711;28;20533;-68
2024/03/06 08:05:51;;;;;;;32.47;13.57;;;6.00;99.90;;;;;;5012782;28;20309;-68
2024/03/06 08:08:19;;;;;;;32.85;14.98;;;6.00;99.90;;;;;;5015706;28;20041;-68
2024/03/06 08:10:44;;;;;;;33.25;14.73;;;6.00;99.90;;;;;;5013328;28;20391;-69
2024/03/06 08:13:10;;;;;;;29.45;14.32;;;6.00;99.90;;;;;;5018337;28;20597;-69
2024/03/06 08:15:36;;;;;;;27.20;14.00;;;6.10;99.90;;;;;;5020403;28;20033;-68
2024/03/06 08:18:03;;;;;;;25.33;13.45;;;6.10;99.90;;;;;;5014903;28;20014;-68
2024/03/06 08:20:29;;;;;;;31.70;14.40;;;6.20;99.90;;;;;;5010559;28;20038;-69
2024/03/06 08:22:56;;;;;;;31.08;14.48;;;6.10;99.90;;;;;;5015627;28;20041;-69
2024/03/06 08:25:21;;;;;;;34.50;14.88;;;6.20;99.90;;;;;;5018359;28;20076;-69
2024/03/06 08:27:47;;;;;;;32.42;14.48;;;6.10;99.90;;;;;;5011568;28;20558;-68
2024/03/06 08:30:13;;;;;;;33.83;14.82;;;6.10;99.90;;;;;;5018726;28;20033;-68
2024/03/06 08:32:39;;;;;;;38.63;14.90;;;6.10;99.90;;;;;;5019956;28;20495;-67
2024/03/06 08:35:05;;;;;;;32.55;14.85;;;6.20;99.90;;;;;;5012799;28;20056;-68
2024/03/06 08:37:32;;;;;;;30.83;13.68;;;6.20;99.90;;;;;;5014970;28;20037;-68
2024/03/06 08:39:59;;;;;;;35.92;15.35;;;6.20;99.90;;;;;;5013217;28;20057;-69
2024/03/06 08:42:25;;;;;;;31.40;15.30;;;6.20;99.90;;;;;;5015282;28;20216;-67
2024/03/06 08:44:51;;;;;;;37.20;15.60;;;6.30;99.90;;;;;;5018351;28;20549;-68
2024/03/06 08:47:17;;;;;;;32.55;15.18;;;6.30;99.90;;;;;;5020852;28;20645;-69
2024/03/06 08:49:42;;;;;;;39.17;14.77;;;6.40;99.90;;;;;;5013854;28;20038;-67
2024/03/06 08:52:09;;;;;;;36.35;16.13;;;6.40;99.90;;;;;;5015209;28;20125;-68
2024/03/06 08:54:36;;;;;;;34.05;15.43;;;6.50;99.90;;;;;;5014374;28;20052;-68
2024/03/06 08:57:02;;;;;;;27.73;14.90;;;6.50;99.90;;;;;;5016302;28;20481;-68
2024/03/06 08:59:29;;;;;;;34.10;14.68;;;6.50;99.90;;;;;;5015728;28;20029;-69
2024/03/06 09:01:55;;;;;;;32.53;15.23;;;6.50;99.90;;;;;;5018505;28;20513;-69
2024/03/06 09:04:21;;;;;;;31.17;15.07;;;6.50;99.90;;;;;;5014743;28;20051;-68
2024/03/06 09:06:48;;;;;;;32.90;15.07;;;6.50;99.90;;;;;;5010840;28;20101;-68
2024/03/06 09:09:14;;;;;;;34.42;15.75;;;6.50;99.90;;;;;;5016704;28;20053;-68
2024/03/06 09:11:43;;;;;;;33.28;15.07;;;6.60;99.90;;;;;;5018671;28;20036;-68
2024/03/06 09:14:09;;;;;;;43.33;15.90;;;6.60;99.90;;;;;;5017493;28;20109;-68
2024/03/06 09:16:35;;;;;;;31.20;15.15;;;6.70;99.90;;;;;;5014789;28;20483;-68
2024/03/06 09:19:01;;;;;;;29.50;15.35;;;6.80;99.90;;;;;;5012307;28;20083;-68
2024/03/06 09:21:28;;;;;;;30.25;15.32;;;6.80;99.90;;;;;;5013723;28;20072;-69
2024/03/06 09:23:53;;;;;;;36.35;16.08;;;6.90;99.90;;;;;;5013975;28;20049;-68
2024/03/06 09:26:20;;;;;;;32.35;15.32;;;7.00;99.90;;;;;;5013209;28;20034;-68
2024/03/06 09:28:46;;;;;;;32.95;15.02;;;6.90;99.90;;;;;;5010157;28;20452;-68
2024/03/06 09:31:13;;;;;;;36.65;17.63;;;7.00;99.90;;;;;;5017306;28;20164;-68
2024/03/06 09:33:39;;;;;;;30.52;16.05;;;7.00;99.90;;;;;;5015148;28;20473;-68
2024/03/06 09:36:05;;;;;;;35.55;16.30;;;7.00;99.90;;;;;;5011924;28;20460;-69
2024/03/06 09:38:31;;;;;;;32.20;16.42;;;7.00;99.90;;;;;;5009252;28;20034;-68
2024/03/06 09:40:57;;;;;;;29.13;15.68;;;7.10;99.90;;;;;;5014832;28;20402;-69
2024/03/06 09:43:24;;;;;;;36.95;15.90;;;7.10;99.90;;;;;;5013462;28;20056;-68
2024/03/06 09:45:51;;;;;;;39.25;17.40;;;7.10;99.90;;;;;;5013693;28;20038;-67
2024/03/06 09:48:21;;;;;;;34.08;17.20;;;7.20;99.90;;;;;;5018613;28;20053;-68
2024/03/06 09:50:50;;;;;;;44.58;16.25;;;7.30;99.90;;;;;;5014245;28;20038;-69
2024/03/06 09:53:16;;;;;;;36.13;17.17;;;7.40;99.90;;;;;;5012642;28;20250;-68
2024/03/06 09:55:42;;;;;;;35.42;18.00;;;7.40;99.90;;;;;;5027314;28;20038;-68
2024/03/06 09:58:08;;;;;;;38.80;18.35;;;7.50;99.90;;;;;;5017379;28;20144;-69
2024/03/06 10:00:37;;;;;;;34.22;17.38;;;7.50;99.90;;;;;;5017059;28;20687;-68
2024/03/06 10:03:05;;;;;;;33.65;17.52;;;7.60;99.90;;;;;;5014309;28;20022;-68
2024/03/06 10:05:33;;;;;;;36.83;17.73;;;7.50;99.90;;;;;;5016993;28;20446;-68
2024/03/06 10:08:00;;;;;;;;;;;7.60;99.90;;;;;;5024927;28;20040;-69
2024/03/06 10:10:26;;;;;;;43.38;17.60;;;7.60;99.90;;;;;;5025368;28;20436;-68
2024/03/06 10:12:52;;;;;;;39.10;17.33;;;7.70;99.90;;;;;;5016387;28;20089;-69
2024/03/06 10:15:18;;;;;;;32.35;16.92;;;7.80;99.90;;;;;;5018855;28;20033;-68
2024/03/06 10:17:45;;;;;;;45.88;18.92;;;7.80;99.90;;;;;;5016326;28;20092;-68
2024/03/06 10:20:25;;;;;;;37.88;18.40;;;8.00;99.90;;;;;;5017807;28;20034;-68
2024/03/06 10:22:52;;;;;;;34.55;16.80;;;7.90;99.90;;;;;;5019905;28;20041;-68
2024/03/06 10:25:22;;;;;;;31.45;17.52;;;8.00;99.90;;;;;;5019287;28;20086;-68
2024/03/06 10:28:07;;;;;;;40.30;17.58;;;8.10;99.90;;;;;;5022779;28;20056;-68
2024/03/06 10:30:35;;;;;;;36.20;16.95;;;8.20;99.90;;;;;;5017256;28;20583;-69
2024/03/06 10:33:02;;;;;;;35.40;16.55;;;8.20;99.90;;;;;;5018361;28;20037;-69
2024/03/06 10:35:28;;;;;;;42.67;17.33;;;8.30;99.90;;;;;;5014312;28;20052;-69
2024/03/06 10:37:55;;;;;;;37.67;16.75;;;8.40;99.90;;;;;;5016058;28;20046;-68
2024/03/06 10:40:22;;;;;;;35.75;15.75;;;8.50;99.90;;;;;;5017496;28;20092;-68
2024/03/06 10:42:49;;;;;;;39.30;17.10;;;8.50;99.90;;;;;;5011236;28;20033;-69
2024/03/06 10:45:17;;;;;;;36.05;15.80;;;8.50;99.90;;;;;;5016569;28;20140;-67
2024/03/06 10:47:47;;;;;;;32.70;15.63;;;8.70;99.90;;;;;;5016724;28;20494;-68
2024/03/06 10:50:15;;;;;;;31.20;16.85;;;8.70;99.90;;;;;;5015280;28;20459;-69
2024/03/06 10:52:41;;;;;;;29.08;15.70;;;8.80;99.90;;;;;;5010868;28;20586;-68
2024/03/06 10:55:10;;;;;;;30.67;15.25;;;8.90;99.90;;;;;;5010939;28;20117;-68
2024/03/06 10:57:37;;;;;;;32.22;15.73;;;9.10;99.90;;;;;;5014058;28;20041;-68
2024/03/06 11:00:03;;;;;;;33.53;15.50;;;9.10;99.90;;;;;;5013242;28;20028;-68
2024/03/06 11:02:29;;;;;;;34.10;17.25;;;9.20;99.90;;;;;;5016779;28;20033;-68
2024/03/06 11:04:55;;;;;;;32.67;15.93;;;9.30;99.90;;;;;;5021776;28;20050;-70
2024/03/06 11:07:21;;;;;;;35.80;15.90;;;9.50;99.90;;;;;;5013960;28;20040;-68
2024/03/06 11:09:48;;;;;;;28.48;15.77;;;9.60;99.90;;;;;;5019318;28;20038;-68
2024/03/06 11:12:33;;;;;;;31.37;15.77;;;9.80;99.90;;;;;;5019233;28;20501;-67
2024/03/06 11:14:58;;;;;;;31.48;15.85;;;9.90;99.90;;;;;;5013779;28;20267;-68
2024/03/06 11:17:28;;;;;;;30.77;14.90;;;10.00;99.40;;;;;;5014329;28;20060;-68
2024/03/06 11:19:59;;;;;;;30.85;14.77;;;10.10;99.20;;;;;;5018439;28;20030;-67
2024/03/06 11:22:59;;;;;;;35.78;16.58;;;10.10;99.10;;;;;;5014813;28;20039;-68
2024/03/06 11:25:55;;;;;;;29.55;15.13;;;10.20;98.70;;;;;;5013845;28;20052;-68
2024/03/06 11:28:28;;;;;;;30.50;15.70;;;10.20;98.50;;;;;;5012639;28;20057;-68
2024/03/06 11:30:54;;;;;;;38.00;17.02;;;10.10;98.40;;;;;;5013799;28;20049;-68
2024/03/06 11:33:19;;;;;;;35.25;16.10;;;9.90;98.70;;;;;;5017162;28;20068;-68
2024/03/06 11:36:20;;;;;;;29.30;16.02;;;9.90;98.70;;;;;;5017527;28;20121;-68
2024/03/06 11:38:55;;;;;;;31.25;15.43;;;9.90;98.70;;;;;;5014516;28;20034;-68
2024/03/06 11:41:23;;;;;;;33.38;15.90;;;10.00;98.30;;;;;;5010102;28;20041;-67
2024/03/06 11:43:51;;;;;;;33.33;16.67;;;10.00;98.10;;;;;;5010742;28;20042;-69
2024/03/06 11:46:17;;;;;;;;;;;9.90;98.30;;;;;;5014182;28;20610;-67
2024/03/06 11:48:43;;;;;;;31.27;14.82;;;9.90;98.40;;;;;;5016690;28;19916;-67
2024/03/06 11:51:09;;;;;;;32.40;15.88;;;9.90;98.60;;;;;;5016448;28;20029;-67
2024/03/06 11:53:36;;;;;;;34.25;15.40;;;9.90;98.30;;;;;;5014278;28;20502;-67
2024/03/06 11:56:02;;;;;;;35.38;15.57;;;9.90;98.40;;;;;;5012899;28;20088;-70
2024/03/06 11:58:27;;;;;;;33.53;15.13;;;10.00;97.60;;;;;;5014211;28;20022;-68
2024/03/06 12:00:54;;;;;;;34.67;14.98;;;9.90;98.10;;;;;;5014654;28;20117;-68
2024/03/06 12:03:23;;;;;;;28.67;14.57;;;10.00;97.40;;;;;;5022347;28;20494;-67
2024/03/06 12:05:50;;;;;;;29.52;15.00;;;9.90;97.70;;;;;;5019385;28;20407;-67
2024/03/06 12:08:16;;;;;;;32.83;14.68;;;10.00;97.50;;;;;;5014987;28;20124;-67
2024/03/06 12:10:42;;;;;;;33.50;14.35;;;9.90;97.90;;;;;;5019182;28;20124;-68
2024/03/06 12:13:07;;;;;;;37.38;15.32;;;9.90;98.10;;;;;;5013589;28;20053;-68
2024/03/06 12:15:33;;;;;;;29.33;15.05;;;9.90;97.90;;;;;;5013766;28;20489;-67
2024/03/06 12:18:01;;;;;;;27.33;15.43;;;10.00;97.60;;;;;;5016908;28;20029;-68
2024/03/06 12:20:26;;;;;;;35.45;15.35;;;10.00;97.80;;;;;;5019022;28;20033;-67
2024/03/06 12:22:56;;;;;;;29.08;15.13;;;10.10;97.90;;;;;;5010530;28;20100;-68
2024/03/06 12:25:26;;;;;;;28.90;16.35;;;10.20;97.80;;;;;;5010793;28;20037;-68
2024/03/06 12:27:54;;;;;;;29.70;16.00;;;10.20;97.70;;;;;;5015156;28;20042;-69
2024/03/06 12:30:22;;;;;;;30.70;16.25;;;10.20;97.90;;;;;;5012844;28;20669;-68
2024/03/06 12:32:58;;;;;;;38.30;16.85;;;10.20;98.00;;;;;;5016294;28;20030;-69
2024/03/06 12:35:27;;;;;;;32.60;15.77;;;10.30;98.30;;;;;;5016136;28;20030;-68